createdAt,value
2023-05-11T06:03:41.574Z,85
2023-05-11T06:09:15.654Z,86.2
2023-05-11T06:14:51.776Z,85
2023-05-11T06:20:27.181Z,82
2023-05-11T06:26:03.320Z,84.5
2023-05-11T06:31:38.844Z,85.7
2023-05-11T06:37:15.845Z,83.6
2023-05-11T06:42:51.777Z,82.7
2023-05-11T06:48:29.191Z,81.7
2023-05-11T06:54:05.992Z,81.3
2023-05-11T06:59:41.191Z,80.5
2023-05-11T07:05:16.618Z,84.3
2023-05-11T07:10:52.961Z,84.3
2023-05-11T07:16:30.598Z,83.5
2023-05-11T07:22:07.110Z,81.6
2023-05-11T07:27:43.591Z,78.5
2023-05-11T07:33:20.604Z,77.6
2023-05-11T07:38:55.771Z,78
2023-05-11T07:44:31.895Z,78.5
2023-05-11T07:50:07.832Z,78.8
2023-05-11T07:55:44.016Z,76.9
2023-05-11T08:01:41.793Z,76.9
2023-05-11T08:07:17.069Z,77
2023-05-11T08:12:53.874Z,76.3
2023-05-11T08:18:29.714Z,76.7
2023-05-11T08:24:07.867Z,73.8
2023-05-11T08:29:43.350Z,74.8
2023-05-11T08:35:19.115Z,75.3
2023-05-11T08:40:57.283Z,71.2
2023-05-11T08:46:32.530Z,73.9
2023-05-11T08:52:31.312Z,66.8
2023-05-11T08:58:11.610Z,69.1
2023-05-11T09:04:09.400Z,62.4
2023-05-11T09:09:45.405Z,62.9
2023-05-11T09:15:23.812Z,63
2023-05-11T09:20:59.451Z,64.9
2023-05-11T09:26:36.876Z,67.7
2023-05-11T09:32:18.132Z,61.9
2023-05-11T09:38:10.778Z,61.2
2023-05-11T09:43:46.913Z,67.1
2023-05-11T09:49:23.262Z,68
2023-05-11T09:54:58.969Z,71.8
2023-05-11T10:00:56.441Z,64.9
2023-05-11T10:06:29.928Z,60.8
2023-05-11T10:12:06.419Z,63
2023-05-11T10:17:41.943Z,65.7
2023-05-11T10:23:17.411Z,58.7
2023-05-11T10:28:53.145Z,62
2023-05-11T10:34:30.373Z,61.1
2023-05-11T10:40:07.171Z,61.2
2023-05-11T10:45:42.316Z,59.1
2023-05-11T10:51:25.109Z,57.9
2023-05-11T10:57:09.511Z,56
2023-05-11T11:03:07.228Z,55
2023-05-11T11:08:41.678Z,49.9
2023-05-11T11:14:17.531Z,52.6
2023-05-11T11:19:53.313Z,53.2
2023-05-11T11:25:29.103Z,50.7
2023-05-11T11:31:05.476Z,55.5
2023-05-11T11:36:42.904Z,63.1
2023-05-11T11:42:21.308Z,80.1
2023-05-11T11:47:58.589Z,89.5
2023-05-11T11:53:37.936Z,88.6
2023-05-11T11:59:15.745Z,83.2
2023-05-11T12:04:51.542Z,81.8
2023-05-11T12:10:33.710Z,81.5
2023-05-11T12:16:10.248Z,77.2
2023-05-11T12:21:47.000Z,74
2023-05-11T12:27:22.594Z,71.8
2023-05-11T12:33:05.652Z,74.4
2023-05-11T12:38:42.435Z,75.2
2023-05-11T12:44:18.198Z,70.5
2023-05-11T12:49:54.802Z,71.4
2023-05-11T12:55:30.351Z,73.1
2023-05-11T13:01:28.774Z,62.6
2023-05-11T13:07:02.725Z,35.4
2023-05-11T13:12:38.364Z,49.8
2023-05-11T13:18:17.068Z,61.6
2023-05-11T13:23:52.994Z,60.7
2023-05-11T13:29:29.781Z,62.5
2023-05-11T13:35:05.364Z,67.2
2023-05-11T13:40:40.669Z,69.3
2023-05-11T13:46:17.014Z,68.9
2023-05-11T13:51:55.545Z,67.9
2023-05-11T13:57:35.167Z,65.4
2023-05-11T14:03:12.547Z,58.8
2023-05-11T14:08:55.580Z,61
2023-05-11T14:14:31.370Z,60.5
2023-05-11T14:20:06.841Z,63.1
2023-05-11T14:25:42.269Z,69.6
2023-05-11T14:31:18.138Z,51
2023-05-11T14:36:55.123Z,47.5
2023-05-11T14:42:29.914Z,65.4
2023-05-11T14:48:05.115Z,58.1
2023-05-11T14:53:42.285Z,39
2023-05-11T14:59:19.036Z,48.3
2023-05-11T15:04:58.830Z,45.3
2023-05-11T15:10:34.648Z,59.1
2023-05-11T15:16:09.784Z,61.7
2023-05-11T15:21:47.122Z,34.1
2023-05-11T15:27:24.113Z,35.7
2023-05-11T15:32:59.903Z,35.6
2023-05-11T15:38:36.572Z,33.3
2023-05-11T15:44:12.222Z,41.3
2023-05-11T15:49:47.266Z,38.8
2023-05-11T15:55:23.878Z,49.5
2023-05-11T16:01:00.445Z,50.4
2023-05-11T16:06:36.322Z,56.1
2023-05-11T16:12:11.905Z,56.8
2023-05-11T16:17:49.188Z,47.2
2023-05-11T16:23:25.639Z,52.1
2023-05-11T16:29:04.118Z,57.4
2023-05-11T16:34:39.875Z,65.5
2023-05-11T16:40:15.396Z,58.7
2023-05-11T16:45:55.739Z,40.5
2023-05-11T16:51:31.959Z,37.9
2023-05-11T16:57:07.526Z,32.8
2023-05-11T17:02:43.473Z,53.9
2023-05-11T17:08:20.962Z,56.6
2023-05-11T17:13:55.772Z,58.3
2023-05-11T17:19:30.582Z,63
2023-05-11T17:25:05.599Z,65.7
2023-05-11T17:30:48.932Z,67
2023-05-11T17:36:27.255Z,61.9
2023-05-11T17:42:03.182Z,65.3
2023-05-11T17:47:38.778Z,66.4
2023-05-11T17:53:16.085Z,69
2023-05-11T17:58:51.139Z,72.4
2023-05-11T18:04:26.934Z,73.5
2023-05-11T18:10:02.495Z,73.7
2023-05-11T18:15:38.319Z,75.2
2023-05-11T18:21:14.536Z,76.7
2023-05-11T18:26:50.218Z,78.2
2023-05-11T18:32:25.088Z,79.7
2023-05-11T18:38:00.860Z,78.2
2023-05-11T18:43:43.695Z,78.5
2023-05-11T18:49:29.039Z,79.9
2023-05-11T18:55:05.440Z,79.1
2023-05-11T19:01:05.476Z,78.8
2023-05-11T19:06:40.464Z,80.4
2023-05-11T19:12:46.365Z,80.3
2023-05-11T19:18:36.078Z,80.1
2023-05-11T19:24:12.022Z,80.2
2023-05-11T19:29:49.023Z,81
2023-05-11T19:35:25.239Z,80.7
2023-05-11T19:41:01.285Z,82.2
2023-05-11T19:46:44.992Z,82.3
2023-05-11T19:52:22.402Z,82
2023-05-11T19:58:05.714Z,83.1
2023-05-11T20:04:04.169Z,82.9
2023-05-11T20:09:38.894Z,81.9
2023-05-11T20:15:14.608Z,82.8
2023-05-11T20:20:58.841Z,83.8
2023-05-11T20:26:35.863Z,84.5
2023-05-11T20:32:24.245Z,84.4
2023-05-11T20:38:08.261Z,84.9
2023-05-11T20:43:43.625Z,84.8
2023-05-11T20:49:39.126Z,85
